sensor_id;sensor_type;location;lat;lon;timestamp;P1;durP1;ratioP1;P2;durP2;ratioP2
16922;SDS011;8578;50.938;13.556;2022-10-31T00:00:55;4.00;;;1.40;;
16922;SDS011;8578;50.938;13.556;2022-10-31T00:03:23;5.07;;;1.30;;
16922;SDS011;8578;50.938;13.556;2022-10-31T00:05:52;5.30;;;1.67;;
16922;SDS011;8578;50.938;13.556;2022-10-31T00:08:19;6.17;;;1.50;;
16922;SDS011;8578;50.938;13.556;2022-10-31T00:10:47;5.03;;;1.50;;
16922;SDS011;8578;50.938;13.556;2022-10-31T00:13:16;7.67;;;1.43;;
16922;SDS011;8578;50.938;13.556;2022-10-31T00:15:43;6.27;;;1.30;;
16922;SDS011;8578;50.938;13.556;2022-10-31T00:18:11;4.43;;;1.23;;
16922;SDS011;8578;50.938;13.556;2022-10-31T00:20:38;7.53;;;1.57;;
16922;SDS011;8578;50.938;13.556;2022-10-31T00:23:06;5.60;;;1.73;;
16922;SDS011;8578;50.938;13.556;2022-10-31T00:25:34;4.53;;;1.47;;
16922;SDS011;8578;50.938;13.556;2022-10-31T00:28:02;3.27;;;1.40;;
16922;SDS011;8578;50.938;13.556;2022-10-31T00:30:31;6.73;;;1.57;;
16922;SDS011;8578;50.938;13.556;2022-10-31T00:32:59;6.20;;;1.77;;
16922;SDS011;8578;50.938;13.556;2022-10-31T00:35:27;4.23;;;1.53;;
16922;SDS011;8578;50.938;13.556;2022-10-31T00:37:54;3.57;;;1.40;;
16922;SDS011;8578;50.938;13.556;2022-10-31T00:40:22;8.50;;;1.70;;
16922;SDS011;8578;50.938;13.556;2022-10-31T00:42:50;6.83;;;1.60;;
16922;SDS011;8578;50.938;13.556;2022-10-31T00:45:18;5.10;;;1.53;;
16922;SDS011;8578;50.938;13.556;2022-10-31T00:47:47;6.70;;;1.43;;
16922;SDS011;8578;50.938;13.556;2022-10-31T00:50:15;2.93;;;1.33;;
16922;SDS011;8578;50.938;13.556;2022-10-31T00:52:43;4.93;;;1.43;;
16922;SDS011;8578;50.938;13.556;2022-10-31T00:55:10;10.03;;;1.60;;
16922;SDS011;8578;50.938;13.556;2022-10-31T00:57:38;3.73;;;1.50;;
16922;SDS011;8578;50.938;13.556;2022-10-31T01:00:05;4.40;;;1.57;;
16922;SDS011;8578;50.938;13.556;2022-10-31T01:02:33;7.90;;;1.67;;
16922;SDS011;8578;50.938;13.556;2022-10-31T01:05:03;6.87;;;1.30;;
16922;SDS011;8578;50.938;13.556;2022-10-31T01:07:30;3.60;;;1.10;;
16922;SDS011;8578;50.938;13.556;2022-10-31T01:09:58;4.30;;;1.43;;
16922;SDS011;8578;50.938;13.556;2022-10-31T01:12:26;5.00;;;1.57;;
16922;SDS011;8578;50.938;13.556;2022-10-31T01:14:54;3.50;;;1.43;;
16922;SDS011;8578;50.938;13.556;2022-10-31T01:17:21;3.77;;;1.50;;
16922;SDS011;8578;50.938;13.556;2022-10-31T01:19:48;2.87;;;1.30;;
16922;SDS011;8578;50.938;13.556;2022-10-31T01:22:19;8.10;;;2.00;;
16922;SDS011;8578;50.938;13.556;2022-10-31T01:24:47;4.87;;;1.20;;
16922;SDS011;8578;50.938;13.556;2022-10-31T01:27:14;4.73;;;1.50;;
16922;SDS011;8578;50.938;13.556;2022-10-31T01:29:42;5.13;;;2.27;;
16922;SDS011;8578;50.938;13.556;2022-10-31T01:32:09;6.60;;;1.77;;
16922;SDS011;8578;50.938;13.556;2022-10-31T01:34:37;4.77;;;1.40;;
16922;SDS011;8578;50.938;13.556;2022-10-31T01:37:04;2.30;;;1.27;;
16922;SDS011;8578;50.938;13.556;2022-10-31T01:39:33;2.87;;;1.23;;
16922;SDS011;8578;50.938;13.556;2022-10-31T01:42:00;4.97;;;1.43;;
16922;SDS011;8578;50.938;13.556;2022-10-31T01:47:37;5.33;;;1.43;;
16922;SDS011;8578;50.938;13.556;2022-10-31T01:50:10;3.40;;;1.73;;
16922;SDS011;8578;50.938;13.556;2022-10-31T01:52:38;7.20;;;1.40;;
16922;SDS011;8578;50.938;13.556;2022-10-31T01:55:11;5.03;;;1.50;;
16922;SDS011;8578;50.938;13.556;2022-10-31T01:57:40;6.27;;;1.77;;
16922;SDS011;8578;50.938;13.556;2022-10-31T02:00:09;4.67;;;1.50;;
16922;SDS011;8578;50.938;13.556;2022-10-31T02:02:40;6.40;;;2.00;;
16922;SDS011;8578;50.938;13.556;2022-10-31T02:05:09;2.17;;;1.20;;
16922;SDS011;8578;50.938;13.556;2022-10-31T02:07:38;4.53;;;1.70;;
16922;SDS011;8578;50.938;13.556;2022-10-31T02:10:06;3.10;;;1.50;;
16922;SDS011;8578;50.938;13.556;2022-10-31T02:12:35;4.50;;;1.60;;
16922;SDS011;8578;50.938;13.556;2022-10-31T02:15:04;6.23;;;1.80;;
16922;SDS011;8578;50.938;13.556;2022-10-31T02:17:32;3.63;;;1.47;;
16922;SDS011;8578;50.938;13.556;2022-10-31T02:20:02;7.97;;;1.60;;
16922;SDS011;8578;50.938;13.556;2022-10-31T02:22:34;3.43;;;1.63;;
16922;SDS011;8578;50.938;13.556;2022-10-31T02:25:11;6.20;;;1.50;;
16922;SDS011;8578;50.938;13.556;2022-10-31T02:27:52;3.83;;;1.50;;
16922;SDS011;8578;50.938;13.556;2022-10-31T02:30:26;6.10;;;1.63;;
16922;SDS011;8578;50.938;13.556;2022-10-31T02:33:05;5.77;;;1.63;;
16922;SDS011;8578;50.938;13.556;2022-10-31T02:35:45;4.07;;;1.50;;
16922;SDS011;8578;50.938;13.556;2022-10-31T02:38:23;2.50;;;1.40;;
16922;SDS011;8578;50.938;13.556;2022-10-31T02:40:56;4.07;;;1.17;;
16922;SDS011;8578;50.938;13.556;2022-10-31T02:43:35;5.90;;;1.40;;
16922;SDS011;8578;50.938;13.556;2022-10-31T02:46:05;5.73;;;1.70;;
16922;SDS011;8578;50.938;13.556;2022-10-31T02:48:37;4.40;;;1.57;;
16922;SDS011;8578;50.938;13.556;2022-10-31T02:51:06;3.33;;;1.10;;
16922;SDS011;8578;50.938;13.556;2022-10-31T02:53:35;10.23;;;1.93;;
16922;SDS011;8578;50.938;13.556;2022-10-31T02:56:09;5.27;;;1.30;;
16922;SDS011;8578;50.938;13.556;2022-10-31T02:58:39;8.03;;;1.30;;
16922;SDS011;8578;50.938;13.556;2022-10-31T03:01:19;4.10;;;1.43;;
16922;SDS011;8578;50.938;13.556;2022-10-31T03:03:53;3.90;;;1.50;;
16922;SDS011;8578;50.938;13.556;2022-10-31T03:06:24;3.73;;;1.20;;
16922;SDS011;8578;50.938;13.556;2022-10-31T03:08:55;4.53;;;1.40;;
16922;SDS011;8578;50.938;13.556;2022-10-31T03:11:28;5.50;;;1.43;;
16922;SDS011;8578;50.938;13.556;2022-10-31T03:13:59;5.97;;;1.53;;
16922;SDS011;8578;50.938;13.556;2022-10-31T03:16:29;6.23;;;1.50;;
16922;SDS011;8578;50.938;13.556;2022-10-31T03:19:03;5.83;;;1.63;;
16922;SDS011;8578;50.938;13.556;2022-10-31T03:21:32;4.17;;;1.80;;
16922;SDS011;8578;50.938;13.556;2022-10-31T03:24:01;6.67;;;1.83;;
16922;SDS011;8578;50.938;13.556;2022-10-31T03:26:29;3.93;;;1.30;;
16922;SDS011;8578;50.938;13.556;2022-10-31T03:28:59;4.00;;;1.40;;
16922;SDS011;8578;50.938;13.556;2022-10-31T03:31:28;3.13;;;1.30;;
16922;SDS011;8578;50.938;13.556;2022-10-31T03:33:56;3.97;;;1.57;;
16922;SDS011;8578;50.938;13.556;2022-10-31T03:36:29;4.90;;;1.53;;
16922;SDS011;8578;50.938;13.556;2022-10-31T03:38:58;6.57;;;1.70;;
16922;SDS011;8578;50.938;13.556;2022-10-31T03:41:28;8.10;;;1.80;;
16922;SDS011;8578;50.938;13.556;2022-10-31T03:43:59;5.37;;;1.60;;
16922;SDS011;8578;50.938;13.556;2022-10-31T03:46:28;4.30;;;1.47;;
16922;SDS011;8578;50.938;13.556;2022-10-31T03:48:57;8.33;;;1.60;;
16922;SDS011;8578;50.938;13.556;2022-10-31T03:51:28;7.30;;;1.83;;
16922;SDS011;8578;50.938;13.556;2022-10-31T03:54:04;5.67;;;1.77;;
16922;SDS011;8578;50.938;13.556;2022-10-31T03:56:35;3.03;;;1.60;;
16922;SDS011;8578;50.938;13.556;2022-10-31T03:59:04;4.30;;;1.50;;
16922;SDS011;8578;50.938;13.556;2022-10-31T04:01:34;4.43;;;1.70;;
16922;SDS011;8578;50.938;13.556;2022-10-31T04:04:03;5.93;;;1.60;;
16922;SDS011;8578;50.938;13.556;2022-10-31T04:06:32;4.90;;;1.77;;
16922;SDS011;8578;50.938;13.556;2022-10-31T04:09:04;3.00;;;1.40;;
16922;SDS011;8578;50.938;13.556;2022-10-31T04:11:34;6.07;;;1.90;;
16922;SDS011;8578;50.938;13.556;2022-10-31T04:14:21;5.50;;;1.63;;
16922;SDS011;8578;50.938;13.556;2022-10-31T04:16:50;3.93;;;1.80;;
16922;SDS011;8578;50.938;13.556;2022-10-31T04:19:23;6.97;;;1.60;;
16922;SDS011;8578;50.938;13.556;2022-10-31T04:21:51;5.77;;;1.90;;
16922;SDS011;8578;50.938;13.556;2022-10-31T04:24:20;4.87;;;1.70;;
16922;SDS011;8578;50.938;13.556;2022-10-31T04:26:47;6.57;;;1.80;;
16922;SDS011;8578;50.938;13.556;2022-10-31T04:29:16;3.30;;;1.50;;
16922;SDS011;8578;50.938;13.556;2022-10-31T04:31:43;6.23;;;1.87;;
16922;SDS011;8578;50.938;13.556;2022-10-31T04:34:11;5.77;;;1.70;;
16922;SDS011;8578;50.938;13.556;2022-10-31T04:36:38;3.27;;;1.67;;
16922;SDS011;8578;50.938;13.556;2022-10-31T04:39:06;4.20;;;1.83;;
16922;SDS011;8578;50.938;13.556;2022-10-31T04:41:42;7.83;;;1.50;;
16922;SDS011;8578;50.938;13.556;2022-10-31T04:44:13;5.07;;;1.87;;
16922;SDS011;8578;50.938;13.556;2022-10-31T04:46:42;3.43;;;1.40;;
16922;SDS011;8578;50.938;13.556;2022-10-31T04:49:09;6.27;;;1.67;;
16922;SDS011;8578;50.938;13.556;2022-10-31T04:51:37;4.00;;;1.57;;
16922;SDS011;8578;50.938;13.556;2022-10-31T04:54:05;3.73;;;1.50;;
16922;SDS011;8578;50.938;13.556;2022-10-31T04:57:08;6.07;;;2.00;;
16922;SDS011;8578;50.938;13.556;2022-10-31T04:59:37;4.10;;;1.80;;
16922;SDS011;8578;50.938;13.556;2022-10-31T05:02:04;10.07;;;2.20;;
16922;SDS011;8578;50.938;13.556;2022-10-31T05:04:42;3.57;;;1.70;;
16922;SDS011;8578;50.938;13.556;2022-10-31T05:07:10;5.90;;;1.50;;
16922;SDS011;8578;50.938;13.556;2022-10-31T05:09:37;4.90;;;1.87;;
16922;SDS011;8578;50.938;13.556;2022-10-31T05:12:05;8.17;;;2.00;;
16922;SDS011;8578;50.938;13.556;2022-10-31T05:14:52;6.33;;;1.70;;
16922;SDS011;8578;50.938;13.556;2022-10-31T05:17:52;5.00;;;1.53;;
16922;SDS011;8578;50.938;13.556;2022-10-31T05:20:58;6.13;;;1.60;;
16922;SDS011;8578;50.938;13.556;2022-10-31T05:23:33;5.27;;;1.57;;
16922;SDS011;8578;50.938;13.556;2022-10-31T05:26:01;8.00;;;1.93;;
16922;SDS011;8578;50.938;13.556;2022-10-31T05:28:28;3.93;;;1.40;;
16922;SDS011;8578;50.938;13.556;2022-10-31T05:30:58;4.60;;;1.97;;
16922;SDS011;8578;50.938;13.556;2022-10-31T05:33:25;4.53;;;1.73;;
16922;SDS011;8578;50.938;13.556;2022-10-31T05:36:25;8.83;;;1.80;;
16922;SDS011;8578;50.938;13.556;2022-10-31T05:38:58;6.10;;;1.77;;
16922;SDS011;8578;50.938;13.556;2022-10-31T05:41:32;5.00;;;1.77;;
16922;SDS011;8578;50.938;13.556;2022-10-31T05:44:18;5.50;;;1.90;;
16922;SDS011;8578;50.938;13.556;2022-10-31T05:47:10;4.33;;;1.53;;
16922;SDS011;8578;50.938;13.556;2022-10-31T05:49:56;4.47;;;1.40;;
16922;SDS011;8578;50.938;13.556;2022-10-31T05:52:42;5.13;;;1.67;;
16922;SDS011;8578;50.938;13.556;2022-10-31T05:55:20;4.07;;;1.87;;
16922;SDS011;8578;50.938;13.556;2022-10-31T05:58:01;4.73;;;2.00;;
16922;SDS011;8578;50.938;13.556;2022-10-31T06:00:30;6.10;;;1.83;;
16922;SDS011;8578;50.938;13.556;2022-10-31T06:03:07;2.93;;;1.60;;
16922;SDS011;8578;50.938;13.556;2022-10-31T06:05:43;5.30;;;2.70;;
16922;SDS011;8578;50.938;13.556;2022-10-31T06:08:17;3.13;;;1.53;;
16922;SDS011;8578;50.938;13.556;2022-10-31T06:10:45;4.77;;;1.70;;
16922;SDS011;8578;50.938;13.556;2022-10-31T06:13:16;6.40;;;2.00;;
16922;SDS011;8578;50.938;13.556;2022-10-31T06:15:49;3.97;;;1.47;;
16922;SDS011;8578;50.938;13.556;2022-10-31T06:18:21;4.40;;;1.70;;
16922;SDS011;8578;50.938;13.556;2022-10-31T06:20:52;4.63;;;1.23;;
16922;SDS011;8578;50.938;13.556;2022-10-31T06:23:21;3.83;;;1.90;;
16922;SDS011;8578;50.938;13.556;2022-10-31T06:25:56;4.53;;;2.00;;
16922;SDS011;8578;50.938;13.556;2022-10-31T06:28:24;2.50;;;1.37;;
16922;SDS011;8578;50.938;13.556;2022-10-31T06:30:58;6.73;;;1.70;;
16922;SDS011;8578;50.938;13.556;2022-10-31T06:33:27;3.57;;;1.40;;
16922;SDS011;8578;50.938;13.556;2022-10-31T06:35:57;7.03;;;2.03;;
16922;SDS011;8578;50.938;13.556;2022-10-31T06:38:25;9.93;;;1.93;;
16922;SDS011;8578;50.938;13.556;2022-10-31T06:40:54;4.43;;;1.70;;
16922;SDS011;8578;50.938;13.556;2022-10-31T06:43:25;3.50;;;1.70;;
16922;SDS011;8578;50.938;13.556;2022-10-31T06:46:11;3.33;;;1.80;;
16922;SDS011;8578;50.938;13.556;2022-10-31T06:48:48;5.07;;;2.00;;
16922;SDS011;8578;50.938;13.556;2022-10-31T06:51:18;7.90;;;2.60;;
16922;SDS011;8578;50.938;13.556;2022-10-31T06:53:49;5.37;;;2.07;;
16922;SDS011;8578;50.938;13.556;2022-10-31T06:56:17;5.47;;;1.93;;
16922;SDS011;8578;50.938;13.556;2022-10-31T06:58:49;5.83;;;1.80;;
16922;SDS011;8578;50.938;13.556;2022-10-31T07:01:27;3.87;;;1.60;;
16922;SDS011;8578;50.938;13.556;2022-10-31T07:03:59;4.17;;;1.57;;
16922;SDS011;8578;50.938;13.556;2022-10-31T07:06:29;5.40;;;1.80;;
16922;SDS011;8578;50.938;13.556;2022-10-31T07:08:57;4.87;;;2.20;;
16922;SDS011;8578;50.938;13.556;2022-10-31T07:11:25;4.43;;;2.13;;
16922;SDS011;8578;50.938;13.556;2022-10-31T07:13:55;9.30;;;2.50;;
16922;SDS011;8578;50.938;13.556;2022-10-31T07:16:23;6.37;;;1.83;;
16922;SDS011;8578;50.938;13.556;2022-10-31T07:18:50;4.43;;;1.87;;
16922;SDS011;8578;50.938;13.556;2022-10-31T07:21:19;5.63;;;1.87;;
16922;SDS011;8578;50.938;13.556;2022-10-31T07:23:47;5.53;;;1.97;;
16922;SDS011;8578;50.938;13.556;2022-10-31T07:26:34;5.93;;;2.03;;
16922;SDS011;8578;50.938;13.556;2022-10-31T07:29:01;6.93;;;2.00;;
16922;SDS011;8578;50.938;13.556;2022-10-31T07:31:29;5.53;;;2.30;;
16922;SDS011;8578;50.938;13.556;2022-10-31T07:34:02;7.27;;;2.57;;
16922;SDS011;8578;50.938;13.556;2022-10-31T07:37:00;5.87;;;2.43;;
16922;SDS011;8578;50.938;13.556;2022-10-31T07:39:29;7.83;;;3.60;;
16922;SDS011;8578;50.938;13.556;2022-10-31T07:41:58;5.77;;;3.73;;
16922;SDS011;8578;50.938;13.556;2022-10-31T07:44:26;9.17;;;3.70;;
16922;SDS011;8578;50.938;13.556;2022-10-31T07:47:22;9.90;;;3.30;;
16922;SDS011;8578;50.938;13.556;2022-10-31T07:50:09;10.07;;;4.50;;
16922;SDS011;8578;50.938;13.556;2022-10-31T07:53:00;7.83;;;3.90;;
16922;SDS011;8578;50.938;13.556;2022-10-31T07:55:48;9.97;;;4.13;;
16922;SDS011;8578;50.938;13.556;2022-10-31T07:58:18;8.50;;;4.03;;
16922;SDS011;8578;50.938;13.556;2022-10-31T08:00:46;12.73;;;4.47;;
16922;SDS011;8578;50.938;13.556;2022-10-31T08:03:24;9.33;;;4.47;;
16922;SDS011;8578;50.938;13.556;2022-10-31T08:06:15;12.10;;;4.83;;
16922;SDS011;8578;50.938;13.556;2022-10-31T08:09:04;12.57;;;5.20;;
16922;SDS011;8578;50.938;13.556;2022-10-31T08:11:32;11.80;;;4.93;;
16922;SDS011;8578;50.938;13.556;2022-10-31T08:14:00;8.17;;;4.70;;
16922;SDS011;8578;50.938;13.556;2022-10-31T08:16:28;9.87;;;5.27;;
16922;SDS011;8578;50.938;13.556;2022-10-31T08:18:59;11.37;;;4.30;;
16922;SDS011;8578;50.938;13.556;2022-10-31T08:21:29;9.73;;;4.60;;
16922;SDS011;8578;50.938;13.556;2022-10-31T08:23:57;13.33;;;4.60;;
16922;SDS011;8578;50.938;13.556;2022-10-31T08:26:27;7.50;;;4.50;;
16922;SDS011;8578;50.938;13.556;2022-10-31T08:28:55;9.50;;;5.10;;
16922;SDS011;8578;50.938;13.556;2022-10-31T08:31:26;8.83;;;4.50;;
16922;SDS011;8578;50.938;13.556;2022-10-31T08:34:18;7.87;;;3.47;;
16922;SDS011;8578;50.938;13.556;2022-10-31T08:37:05;12.73;;;3.17;;
16922;SDS011;8578;50.938;13.556;2022-10-31T08:39:39;7.93;;;3.50;;
16922;SDS011;8578;50.938;13.556;2022-10-31T08:42:08;5.70;;;3.17;;
16922;SDS011;8578;50.938;13.556;2022-10-31T08:44:35;6.10;;;2.80;;
16922;SDS011;8578;50.938;13.556;2022-10-31T08:47:03;5.47;;;3.00;;
16922;SDS011;8578;50.938;13.556;2022-10-31T08:49:32;7.10;;;2.40;;
16922;SDS011;8578;50.938;13.556;2022-10-31T08:52:01;10.90;;;3.17;;
16922;SDS011;8578;50.938;13.556;2022-10-31T08:54:33;7.73;;;2.53;;
16922;SDS011;8578;50.938;13.556;2022-10-31T08:57:20;6.97;;;2.30;;
16922;SDS011;8578;50.938;13.556;2022-10-31T08:59:48;7.87;;;2.80;;
16922;SDS011;8578;50.938;13.556;2022-10-31T09:02:23;10.23;;;2.63;;
16922;SDS011;8578;50.938;13.556;2022-10-31T09:04:56;6.03;;;2.27;;
16922;SDS011;8578;50.938;13.556;2022-10-31T09:07:23;9.87;;;2.40;;
16922;SDS011;8578;50.938;13.556;2022-10-31T09:09:52;9.47;;;2.37;;
16922;SDS011;8578;50.938;13.556;2022-10-31T09:12:23;7.00;;;2.37;;
16922;SDS011;8578;50.938;13.556;2022-10-31T09:15:23;9.13;;;2.90;;
16922;SDS011;8578;50.938;13.556;2022-10-31T09:17:57;8.80;;;2.70;;
16922;SDS011;8578;50.938;13.556;2022-10-31T09:20:46;6.70;;;2.30;;
16922;SDS011;8578;50.938;13.556;2022-10-31T09:23:15;5.83;;;2.43;;
16922;SDS011;8578;50.938;13.556;2022-10-31T09:25:43;8.30;;;2.43;;
16922;SDS011;8578;50.938;13.556;2022-10-31T09:28:33;7.70;;;2.63;;
16922;SDS011;8578;50.938;13.556;2022-10-31T09:31:12;5.47;;;2.57;;
16922;SDS011;8578;50.938;13.556;2022-10-31T09:33:56;7.97;;;2.40;;
16922;SDS011;8578;50.938;13.556;2022-10-31T09:36:36;5.67;;;2.43;;
16922;SDS011;8578;50.938;13.556;2022-10-31T09:39:06;8.93;;;3.00;;
16922;SDS011;8578;50.938;13.556;2022-10-31T09:41:42;10.37;;;3.20;;
16922;SDS011;8578;50.938;13.556;2022-10-31T09:44:14;8.60;;;2.53;;
16922;SDS011;8578;50.938;13.556;2022-10-31T09:46:49;7.17;;;2.20;;
16922;SDS011;8578;50.938;13.556;2022-10-31T09:49:30;7.03;;;2.80;;
16922;SDS011;8578;50.938;13.556;2022-10-31T09:52:01;5.37;;;2.60;;
16922;SDS011;8578;50.938;13.556;2022-10-31T09:54:32;7.17;;;2.83;;
16922;SDS011;8578;50.938;13.556;2022-10-31T09:57:01;6.57;;;2.67;;
16922;SDS011;8578;50.938;13.556;2022-10-31T09:59:33;6.33;;;2.60;;
16922;SDS011;8578;50.938;13.556;2022-10-31T10:02:02;10.23;;;2.70;;
16922;SDS011;8578;50.938;13.556;2022-10-31T10:04:37;6.13;;;2.50;;
16922;SDS011;8578;50.938;13.556;2022-10-31T10:07:16;5.27;;;2.40;;
16922;SDS011;8578;50.938;13.556;2022-10-31T10:10:10;7.40;;;2.53;;
16922;SDS011;8578;50.938;13.556;2022-10-31T10:13:13;4.13;;;2.30;;
16922;SDS011;8578;50.938;13.556;2022-10-31T10:15:50;5.93;;;2.87;;
16922;SDS011;8578;50.938;13.556;2022-10-31T10:18:24;9.63;;;3.13;;
16922;SDS011;8578;50.938;13.556;2022-10-31T10:20:59;8.60;;;2.63;;
16922;SDS011;8578;50.938;13.556;2022-10-31T10:23:32;7.50;;;2.50;;
16922;SDS011;8578;50.938;13.556;2022-10-31T10:26:04;6.87;;;2.53;;
16922;SDS011;8578;50.938;13.556;2022-10-31T10:28:37;7.03;;;2.43;;
16922;SDS011;8578;50.938;13.556;2022-10-31T10:31:08;5.83;;;2.47;;
16922;SDS011;8578;50.938;13.556;2022-10-31T10:33:36;8.93;;;3.10;;
16922;SDS011;8578;50.938;13.556;2022-10-31T10:36:08;12.13;;;3.03;;
16922;SDS011;8578;50.938;13.556;2022-10-31T10:38:38;6.93;;;2.83;;
16922;SDS011;8578;50.938;13.556;2022-10-31T10:41:08;8.23;;;3.07;;
16922;SDS011;8578;50.938;13.556;2022-10-31T10:43:37;9.20;;;2.90;;
16922;SDS011;8578;50.938;13.556;2022-10-31T10:49:10;10.40;;;3.23;;
16922;SDS011;8578;50.938;13.556;2022-10-31T10:51:40;7.37;;;2.53;;
16922;SDS011;8578;50.938;13.556;2022-10-31T10:54:41;6.33;;;2.67;;
16922;SDS011;8578;50.938;13.556;2022-10-31T10:57:23;7.27;;;2.87;;
16922;SDS011;8578;50.938;13.556;2022-10-31T10:59:54;6.43;;;2.77;;
16922;SDS011;8578;50.938;13.556;2022-10-31T11:02:22;5.63;;;2.60;;
16922;SDS011;8578;50.938;13.556;2022-10-31T11:04:51;5.53;;;2.70;;
16922;SDS011;8578;50.938;13.556;2022-10-31T11:07:19;5.50;;;2.63;;
16922;SDS011;8578;50.938;13.556;2022-10-31T11:09:47;7.70;;;2.90;;
16922;SDS011;8578;50.938;13.556;2022-10-31T11:12:17;9.97;;;2.80;;
16922;SDS011;8578;50.938;13.556;2022-10-31T11:14:47;9.07;;;3.03;;
16922;SDS011;8578;50.938;13.556;2022-10-31T11:17:20;7.07;;;2.50;;
16922;SDS011;8578;50.938;13.556;2022-10-31T11:19:47;7.43;;;2.40;;
16922;SDS011;8578;50.938;13.556;2022-10-31T11:22:16;6.80;;;2.70;;
16922;SDS011;8578;50.938;13.556;2022-10-31T11:24:44;5.70;;;2.43;;
16922;SDS011;8578;50.938;13.556;2022-10-31T11:27:14;7.90;;;2.57;;
16922;SDS011;8578;50.938;13.556;2022-10-31T11:29:42;6.20;;;2.57;;
16922;SDS011;8578;50.938;13.556;2022-10-31T11:32:16;6.83;;;2.90;;
16922;SDS011;8578;50.938;13.556;2022-10-31T11:34:45;7.67;;;2.63;;
16922;SDS011;8578;50.938;13.556;2022-10-31T11:37:17;7.83;;;2.73;;
16922;SDS011;8578;50.938;13.556;2022-10-31T11:39:45;6.83;;;3.03;;
16922;SDS011;8578;50.938;13.556;2022-10-31T11:42:19;7.43;;;3.07;;
16922;SDS011;8578;50.938;13.556;2022-10-31T11:44:47;6.17;;;2.60;;
16922;SDS011;8578;50.938;13.556;2022-10-31T11:47:16;4.80;;;2.27;;
16922;SDS011;8578;50.938;13.556;2022-10-31T11:49:44;7.60;;;2.30;;
16922;SDS011;8578;50.938;13.556;2022-10-31T11:52:18;7.03;;;2.40;;
16922;SDS011;8578;50.938;13.556;2022-10-31T11:54:47;9.00;;;2.50;;
16922;SDS011;8578;50.938;13.556;2022-10-31T11:57:22;6.50;;;2.10;;
16922;SDS011;8578;50.938;13.556;2022-10-31T11:59:51;8.63;;;2.27;;
16922;SDS011;8578;50.938;13.556;2022-10-31T12:02:18;5.80;;;2.73;;
16922;SDS011;8578;50.938;13.556;2022-10-31T12:04:47;8.37;;;2.40;;
16922;SDS011;8578;50.938;13.556;2022-10-31T12:07:17;6.13;;;2.60;;
16922;SDS011;8578;50.938;13.556;2022-10-31T12:09:44;5.70;;;2.07;;
16922;SDS011;8578;50.938;13.556;2022-10-31T12:12:33;7.77;;;2.40;;
16922;SDS011;8578;50.938;13.556;2022-10-31T12:15:07;7.17;;;2.43;;
16922;SDS011;8578;50.938;13.556;2022-10-31T12:17:39;9.13;;;2.90;;
16922;SDS011;8578;50.938;13.556;2022-10-31T12:20:11;7.17;;;2.63;;
16922;SDS011;8578;50.938;13.556;2022-10-31T12:22:46;8.07;;;3.07;;
16922;SDS011;8578;50.938;13.556;2022-10-31T12:25:18;7.93;;;2.80;;
16922;SDS011;8578;50.938;13.556;2022-10-31T12:27:54;8.03;;;3.40;;
16922;SDS011;8578;50.938;13.556;2022-10-31T12:30:23;8.27;;;2.60;;
16922;SDS011;8578;50.938;13.556;2022-10-31T12:33:01;8.47;;;2.67;;
16922;SDS011;8578;50.938;13.556;2022-10-31T12:35:36;5.03;;;2.87;;
16922;SDS011;8578;50.938;13.556;2022-10-31T12:40:57;6.87;;;2.90;;
16922;SDS011;8578;50.938;13.556;2022-10-31T12:43:33;8.60;;;2.87;;
16922;SDS011;8578;50.938;13.556;2022-10-31T12:46:03;5.27;;;2.70;;
16922;SDS011;8578;50.938;13.556;2022-10-31T12:48:38;6.37;;;2.87;;
16922;SDS011;8578;50.938;13.556;2022-10-31T12:51:09;8.57;;;3.17;;
16922;SDS011;8578;50.938;13.556;2022-10-31T12:53:43;7.43;;;3.07;;
16922;SDS011;8578;50.938;13.556;2022-10-31T12:56:19;6.37;;;2.93;;
16922;SDS011;8578;50.938;13.556;2022-10-31T12:58:51;10.63;;;3.67;;
16922;SDS011;8578;50.938;13.556;2022-10-31T13:01:21;8.87;;;3.37;;
16922;SDS011;8578;50.938;13.556;2022-10-31T13:03:52;8.53;;;3.00;;
16922;SDS011;8578;50.938;13.556;2022-10-31T13:06:22;10.90;;;3.37;;
16922;SDS011;8578;50.938;13.556;2022-10-31T13:08:51;8.47;;;3.43;;
16922;SDS011;8578;50.938;13.556;2022-10-31T13:11:23;13.13;;;3.70;;
16922;SDS011;8578;50.938;13.556;2022-10-31T13:13:54;8.90;;;3.50;;
16922;SDS011;8578;50.938;13.556;2022-10-31T13:16:24;11.07;;;3.40;;
16922;SDS011;8578;50.938;13.556;2022-10-31T13:18:54;9.07;;;3.40;;
16922;SDS011;8578;50.938;13.556;2022-10-31T13:21:25;12.90;;;3.90;;
16922;SDS011;8578;50.938;13.556;2022-10-31T13:23:53;10.70;;;3.80;;
16922;SDS011;8578;50.938;13.556;2022-10-31T13:26:26;9.73;;;3.93;;
16922;SDS011;8578;50.938;13.556;2022-10-31T13:29:00;9.07;;;4.10;;
16922;SDS011;8578;50.938;13.556;2022-10-31T13:31:30;10.00;;;4.33;;
16922;SDS011;8578;50.938;13.556;2022-10-31T13:33:58;7.67;;;3.80;;
16922;SDS011;8578;50.938;13.556;2022-10-31T13:36:31;8.90;;;3.50;;
16922;SDS011;8578;50.938;13.556;2022-10-31T13:39:03;7.43;;;3.83;;
16922;SDS011;8578;50.938;13.556;2022-10-31T13:41:38;9.77;;;3.57;;
16922;SDS011;8578;50.938;13.556;2022-10-31T13:44:10;8.90;;;3.73;;
16922;SDS011;8578;50.938;13.556;2022-10-31T13:46:39;10.83;;;4.40;;
16922;SDS011;8578;50.938;13.556;2022-10-31T13:49:25;6.87;;;3.90;;
16922;SDS011;8578;50.938;13.556;2022-10-31T13:51:52;10.63;;;4.27;;
16922;SDS011;8578;50.938;13.556;2022-10-31T13:54:21;11.23;;;4.43;;
16922;SDS011;8578;50.938;13.556;2022-10-31T13:56:50;11.67;;;4.37;;
16922;SDS011;8578;50.938;13.556;2022-10-31T13:59:18;6.93;;;4.07;;
16922;SDS011;8578;50.938;13.556;2022-10-31T14:01:49;9.73;;;5.10;;
16922;SDS011;8578;50.938;13.556;2022-10-31T14:04:17;11.47;;;7.43;;
16922;SDS011;8578;50.938;13.556;2022-10-31T14:07:04;25.73;;;17.67;;
16922;SDS011;8578;50.938;13.556;2022-10-31T14:09:33;18.17;;;11.70;;
16922;SDS011;8578;50.938;13.556;2022-10-31T14:12:04;11.10;;;6.10;;
16922;SDS011;8578;50.938;13.556;2022-10-31T14:14:34;8.97;;;4.87;;
16922;SDS011;8578;50.938;13.556;2022-10-31T14:17:03;7.93;;;3.83;;
16922;SDS011;8578;50.938;13.556;2022-10-31T14:19:30;8.77;;;4.27;;
16922;SDS011;8578;50.938;13.556;2022-10-31T14:21:58;9.20;;;6.23;;
16922;SDS011;8578;50.938;13.556;2022-10-31T14:24:32;20.33;;;13.77;;
16922;SDS011;8578;50.938;13.556;2022-10-31T14:27:01;11.97;;;8.33;;
16922;SDS011;8578;50.938;13.556;2022-10-31T14:29:30;7.63;;;5.50;;
16922;SDS011;8578;50.938;13.556;2022-10-31T14:32:00;7.73;;;4.40;;
16922;SDS011;8578;50.938;13.556;2022-10-31T14:34:29;8.67;;;4.30;;
16922;SDS011;8578;50.938;13.556;2022-10-31T14:37:08;11.07;;;4.40;;
16922;SDS011;8578;50.938;13.556;2022-10-31T14:39:41;9.00;;;4.23;;
16922;SDS011;8578;50.938;13.556;2022-10-31T14:42:16;8.07;;;3.80;;
16922;SDS011;8578;50.938;13.556;2022-10-31T14:44:54;6.37;;;3.63;;
16922;SDS011;8578;50.938;13.556;2022-10-31T14:47:28;9.97;;;6.33;;
16922;SDS011;8578;50.938;13.556;2022-10-31T14:50:09;35.10;;;31.67;;
16922;SDS011;8578;50.938;13.556;2022-10-31T14:52:40;23.90;;;20.90;;
16922;SDS011;8578;50.938;13.556;2022-10-31T14:55:12;11.33;;;8.80;;
16922;SDS011;8578;50.938;13.556;2022-10-31T14:57:44;10.60;;;6.17;;
16922;SDS011;8578;50.938;13.556;2022-10-31T15:00:15;9.43;;;4.50;;
16922;SDS011;8578;50.938;13.556;2022-10-31T15:02:45;10.73;;;6.07;;
16922;SDS011;8578;50.938;13.556;2022-10-31T15:05:15;16.23;;;10.60;;
16922;SDS011;8578;50.938;13.556;2022-10-31T15:07:48;13.87;;;12.17;;
16922;SDS011;8578;50.938;13.556;2022-10-31T15:10:19;13.23;;;8.13;;
16922;SDS011;8578;50.938;13.556;2022-10-31T15:12:47;9.53;;;6.40;;
16922;SDS011;8578;50.938;13.556;2022-10-31T15:15:18;11.40;;;5.20;;
16922;SDS011;8578;50.938;13.556;2022-10-31T15:17:48;11.57;;;5.80;;
16922;SDS011;8578;50.938;13.556;2022-10-31T15:20:17;16.47;;;7.70;;
16922;SDS011;8578;50.938;13.556;2022-10-31T15:22:45;24.23;;;12.03;;
16922;SDS011;8578;50.938;13.556;2022-10-31T15:25:16;13.33;;;7.07;;